sensor_id;sensor_type;location;lat;lon;timestamp;P1;durP1;ratioP1;P2;durP2;ratioP2
52586;SDS011;38480;52.724;6.436;2023-02-08T00:01:05;37.60;;;18.63;;
52586;SDS011;38480;52.724;6.436;2023-02-08T00:03:31;38.43;;;19.97;;
52586;SDS011;38480;52.724;6.436;2023-02-08T00:05:57;39.43;;;18.50;;
52586;SDS011;38480;52.724;6.436;2023-02-08T00:08:23;32.50;;;17.73;;
52586;SDS011;38480;52.724;6.436;2023-02-08T00:10:49;37.30;;;19.77;;
52586;SDS011;38480;52.724;6.436;2023-02-08T00:13:15;36.73;;;19.10;;
52586;SDS011;38480;52.724;6.436;2023-02-08T00:15:42;37.43;;;18.67;;
52586;SDS011;38480;52.724;6.436;2023-02-08T00:18:08;34.83;;;17.93;;
52586;SDS011;38480;52.724;6.436;2023-02-08T00:20:36;35.53;;;18.07;;
52586;SDS011;38480;52.724;6.436;2023-02-08T00:23:02;34.97;;;19.33;;
52586;SDS011;38480;52.724;6.436;2023-02-08T00:25:28;34.73;;;17.53;;
52586;SDS011;38480;52.724;6.436;2023-02-08T00:27:54;34.13;;;16.43;;
52586;SDS011;38480;52.724;6.436;2023-02-08T00:30:20;33.20;;;16.80;;
52586;SDS011;38480;52.724;6.436;2023-02-08T00:32:46;30.70;;;17.07;;
52586;SDS011;38480;52.724;6.436;2023-02-08T00:35:13;29.97;;;15.40;;
52586;SDS011;38480;52.724;6.436;2023-02-08T00:37:39;36.57;;;17.17;;
52586;SDS011;38480;52.724;6.436;2023-02-08T00:40:05;37.57;;;19.33;;
52586;SDS011;38480;52.724;6.436;2023-02-08T00:42:32;36.63;;;18.90;;
52586;SDS011;38480;52.724;6.436;2023-02-08T00:44:58;28.80;;;15.13;;
52586;SDS011;38480;52.724;6.436;2023-02-08T00:47:24;29.33;;;15.57;;
52586;SDS011;38480;52.724;6.436;2023-02-08T00:49:50;31.23;;;17.90;;
52586;SDS011;38480;52.724;6.436;2023-02-08T00:52:16;29.90;;;14.47;;
52586;SDS011;38480;52.724;6.436;2023-02-08T00:54:42;27.33;;;14.33;;
52586;SDS011;38480;52.724;6.436;2023-02-08T00:57:08;30.77;;;16.30;;
52586;SDS011;38480;52.724;6.436;2023-02-08T00:59:34;33.00;;;17.03;;
52586;SDS011;38480;52.724;6.436;2023-02-08T01:02:00;33.70;;;16.37;;
52586;SDS011;38480;52.724;6.436;2023-02-08T01:04:26;30.67;;;17.00;;
52586;SDS011;38480;52.724;6.436;2023-02-08T01:06:52;36.70;;;17.10;;
52586;SDS011;38480;52.724;6.436;2023-02-08T01:09:18;36.67;;;17.13;;
52586;SDS011;38480;52.724;6.436;2023-02-08T01:11:44;35.77;;;17.53;;
52586;SDS011;38480;52.724;6.436;2023-02-08T01:14:11;35.37;;;17.37;;
52586;SDS011;38480;52.724;6.436;2023-02-08T01:16:37;37.60;;;19.43;;
52586;SDS011;38480;52.724;6.436;2023-02-08T01:19:03;37.17;;;19.17;;
52586;SDS011;38480;52.724;6.436;2023-02-08T01:21:34;37.87;;;19.50;;
52586;SDS011;38480;52.724;6.436;2023-02-08T01:24:00;42.47;;;19.70;;
52586;SDS011;38480;52.724;6.436;2023-02-08T01:26:27;34.83;;;17.47;;
52586;SDS011;38480;52.724;6.436;2023-02-08T01:28:53;39.53;;;17.40;;
52586;SDS011;38480;52.724;6.436;2023-02-08T01:31:27;35.17;;;18.30;;
52586;SDS011;38480;52.724;6.436;2023-02-08T01:36:19;34.67;;;17.33;;
52586;SDS011;38480;52.724;6.436;2023-02-08T01:38:46;33.53;;;17.20;;
52586;SDS011;38480;52.724;6.436;2023-02-08T01:41:16;37.80;;;17.77;;
52586;SDS011;38480;52.724;6.436;2023-02-08T01:46:28;37.87;;;20.97;;
52586;SDS011;38480;52.724;6.436;2023-02-08T01:48:55;34.50;;;18.97;;
52586;SDS011;38480;52.724;6.436;2023-02-08T01:51:24;41.80;;;19.67;;
52586;SDS011;38480;52.724;6.436;2023-02-08T01:53:51;36.93;;;19.43;;
52586;SDS011;38480;52.724;6.436;2023-02-08T01:56:26;32.80;;;17.10;;
52586;SDS011;38480;52.724;6.436;2023-02-08T01:58:54;33.47;;;16.77;;
52586;SDS011;38480;52.724;6.436;2023-02-08T02:01:21;35.37;;;17.00;;
52586;SDS011;38480;52.724;6.436;2023-02-08T02:03:47;33.20;;;18.10;;
52586;SDS011;38480;52.724;6.436;2023-02-08T02:06:17;39.03;;;19.33;;
52586;SDS011;38480;52.724;6.436;2023-02-08T02:08:48;39.00;;;18.20;;
52586;SDS011;38480;52.724;6.436;2023-02-08T02:11:16;35.97;;;18.10;;
52586;SDS011;38480;52.724;6.436;2023-02-08T02:13:43;33.20;;;17.97;;
52586;SDS011;38480;52.724;6.436;2023-02-08T02:16:09;35.67;;;17.37;;
52586;SDS011;38480;52.724;6.436;2023-02-08T02:18:35;33.57;;;16.53;;
52586;SDS011;38480;52.724;6.436;2023-02-08T02:26:21;28.93;;;14.60;;
52586;SDS011;38480;52.724;6.436;2023-02-08T02:34:07;32.80;;;16.73;;
52586;SDS011;38480;52.724;6.436;2023-02-08T02:41:31;40.47;;;16.80;;
52586;SDS011;38480;52.724;6.436;2023-02-08T02:47:21;34.83;;;18.30;;
52586;SDS011;38480;52.724;6.436;2023-02-08T02:49:50;33.30;;;17.13;;
52586;SDS011;38480;52.724;6.436;2023-02-08T02:52:53;33.17;;;17.13;;
52586;SDS011;38480;52.724;6.436;2023-02-08T02:55:10;30.30;;;15.90;;
52586;SDS011;38480;52.724;6.436;2023-02-08T02:57:39;32.33;;;16.73;;
52586;SDS011;38480;52.724;6.436;2023-02-08T03:00:10;34.33;;;16.63;;
52586;SDS011;38480;52.724;6.436;2023-02-08T03:02:38;32.17;;;16.57;;
52586;SDS011;38480;52.724;6.436;2023-02-08T03:05:05;30.50;;;15.40;;
52586;SDS011;38480;52.724;6.436;2023-02-08T03:31:26;35.93;;;17.87;;
52586;SDS011;38480;52.724;6.436;2023-02-08T03:36:30;39.53;;;19.50;;
52586;SDS011;38480;52.724;6.436;2023-02-08T03:38:57;32.30;;;19.07;;
52586;SDS011;38480;52.724;6.436;2023-02-08T03:41:26;32.07;;;18.70;;
52586;SDS011;38480;52.724;6.436;2023-02-08T03:43:55;34.93;;;17.30;;
52586;SDS011;38480;52.724;6.436;2023-02-08T03:49:22;38.00;;;18.43;;
52586;SDS011;38480;52.724;6.436;2023-02-08T03:51:49;33.50;;;18.27;;
52586;SDS011;38480;52.724;6.436;2023-02-08T03:54:22;37.00;;;18.53;;
52586;SDS011;38480;52.724;6.436;2023-02-08T03:59:17;31.83;;;17.27;;
52586;SDS011;38480;52.724;6.436;2023-02-08T04:01:47;38.90;;;18.67;;
52586;SDS011;38480;52.724;6.436;2023-02-08T04:04:15;33.13;;;16.90;;
52586;SDS011;38480;52.724;6.436;2023-02-08T04:06:42;32.43;;;16.40;;
52586;SDS011;38480;52.724;6.436;2023-02-08T04:09:09;30.47;;;16.97;;
52586;SDS011;38480;52.724;6.436;2023-02-08T04:11:35;31.90;;;16.63;;
52586;SDS011;38480;52.724;6.436;2023-02-08T04:14:01;38.57;;;19.63;;
52586;SDS011;38480;52.724;6.436;2023-02-08T04:16:27;38.67;;;18.60;;
52586;SDS011;38480;52.724;6.436;2023-02-08T04:18:53;33.47;;;18.30;;
52586;SDS011;38480;52.724;6.436;2023-02-08T04:21:19;37.20;;;20.10;;
52586;SDS011;38480;52.724;6.436;2023-02-08T04:23:45;36.70;;;18.70;;
52586;SDS011;38480;52.724;6.436;2023-02-08T04:26:11;30.00;;;15.70;;
52586;SDS011;38480;52.724;6.436;2023-02-08T04:28:38;34.27;;;18.43;;
52586;SDS011;38480;52.724;6.436;2023-02-08T04:31:04;41.57;;;19.87;;
52586;SDS011;38480;52.724;6.436;2023-02-08T04:33:30;39.47;;;18.60;;
52586;SDS011;38480;52.724;6.436;2023-02-08T04:35:56;37.30;;;17.03;;
52586;SDS011;38480;52.724;6.436;2023-02-08T04:38:22;40.03;;;19.90;;
52586;SDS011;38480;52.724;6.436;2023-02-08T04:40:48;34.70;;;16.87;;
52586;SDS011;38480;52.724;6.436;2023-02-08T04:43:14;33.50;;;17.33;;
52586;SDS011;38480;52.724;6.436;2023-02-08T04:45:40;36.83;;;16.93;;
52586;SDS011;38480;52.724;6.436;2023-02-08T04:48:06;36.63;;;18.50;;
52586;SDS011;38480;52.724;6.436;2023-02-08T04:50:33;35.57;;;18.50;;
52586;SDS011;38480;52.724;6.436;2023-02-08T04:52:59;35.47;;;18.53;;
52586;SDS011;38480;52.724;6.436;2023-02-08T04:55:25;37.23;;;18.63;;
52586;SDS011;38480;52.724;6.436;2023-02-08T04:57:51;37.73;;;18.70;;
52586;SDS011;38480;52.724;6.436;2023-02-08T05:00:17;34.80;;;18.80;;
52586;SDS011;38480;52.724;6.436;2023-02-08T05:02:44;36.37;;;17.77;;
52586;SDS011;38480;52.724;6.436;2023-02-08T05:05:10;33.87;;;17.73;;
52586;SDS011;38480;52.724;6.436;2023-02-08T05:07:36;36.07;;;17.87;;
52586;SDS011;38480;52.724;6.436;2023-02-08T05:10:03;35.57;;;18.10;;
52586;SDS011;38480;52.724;6.436;2023-02-08T05:12:29;37.87;;;18.57;;
52586;SDS011;38480;52.724;6.436;2023-02-08T05:14:55;38.00;;;18.80;;
52586;SDS011;38480;52.724;6.436;2023-02-08T05:17:22;33.60;;;17.93;;
52586;SDS011;38480;52.724;6.436;2023-02-08T05:19:48;37.90;;;18.03;;
52586;SDS011;38480;52.724;6.436;2023-02-08T05:22:14;40.87;;;19.67;;
52586;SDS011;38480;52.724;6.436;2023-02-08T05:24:40;45.77;;;21.10;;
52586;SDS011;38480;52.724;6.436;2023-02-08T05:27:06;43.90;;;21.87;;
52586;SDS011;38480;52.724;6.436;2023-02-08T05:29:32;42.47;;;23.13;;
52586;SDS011;38480;52.724;6.436;2023-02-08T05:31:59;44.20;;;22.73;;
52586;SDS011;38480;52.724;6.436;2023-02-08T05:34:25;42.30;;;21.03;;
52586;SDS011;38480;52.724;6.436;2023-02-08T05:36:51;42.73;;;21.20;;
52586;SDS011;38480;52.724;6.436;2023-02-08T05:39:17;44.80;;;22.03;;
52586;SDS011;38480;52.724;6.436;2023-02-08T05:41:43;42.17;;;21.70;;
52586;SDS011;38480;52.724;6.436;2023-02-08T05:44:09;38.77;;;19.67;;
52586;SDS011;38480;52.724;6.436;2023-02-08T05:46:35;38.80;;;20.07;;
52586;SDS011;38480;52.724;6.436;2023-02-08T05:49:01;38.83;;;19.17;;
52586;SDS011;38480;52.724;6.436;2023-02-08T05:51:27;37.57;;;20.10;;
52586;SDS011;38480;52.724;6.436;2023-02-08T05:53:53;38.30;;;19.87;;
52586;SDS011;38480;52.724;6.436;2023-02-08T05:56:19;42.80;;;21.47;;
52586;SDS011;38480;52.724;6.436;2023-02-08T05:58:45;43.20;;;22.07;;
52586;SDS011;38480;52.724;6.436;2023-02-08T06:01:12;42.53;;;22.93;;
52586;SDS011;38480;52.724;6.436;2023-02-08T06:03:38;51.23;;;26.33;;
52586;SDS011;38480;52.724;6.436;2023-02-08T06:06:05;45.47;;;24.70;;
52586;SDS011;38480;52.724;6.436;2023-02-08T06:08:32;51.30;;;24.43;;
52586;SDS011;38480;52.724;6.436;2023-02-08T06:10:58;45.70;;;22.33;;
52586;SDS011;38480;52.724;6.436;2023-02-08T06:13:24;46.83;;;22.87;;
52586;SDS011;38480;52.724;6.436;2023-02-08T06:15:50;52.77;;;23.70;;
52586;SDS011;38480;52.724;6.436;2023-02-08T06:18:16;51.50;;;26.53;;
52586;SDS011;38480;52.724;6.436;2023-02-08T06:20:42;52.07;;;26.07;;
52586;SDS011;38480;52.724;6.436;2023-02-08T06:23:08;50.43;;;24.27;;
52586;SDS011;38480;52.724;6.436;2023-02-08T06:25:34;46.63;;;22.83;;
52586;SDS011;38480;52.724;6.436;2023-02-08T06:28:00;39.13;;;20.17;;
52586;SDS011;38480;52.724;6.436;2023-02-08T06:30:27;43.53;;;21.20;;
52586;SDS011;38480;52.724;6.436;2023-02-08T06:32:53;40.17;;;20.10;;
52586;SDS011;38480;52.724;6.436;2023-02-08T06:35:19;44.93;;;23.03;;
52586;SDS011;38480;52.724;6.436;2023-02-08T06:37:45;43.17;;;21.67;;
52586;SDS011;38480;52.724;6.436;2023-02-08T06:40:11;43.97;;;21.73;;
52586;SDS011;38480;52.724;6.436;2023-02-08T06:42:37;46.47;;;21.67;;
52586;SDS011;38480;52.724;6.436;2023-02-08T06:45:03;49.93;;;22.73;;
52586;SDS011;38480;52.724;6.436;2023-02-08T06:47:32;45.47;;;23.77;;
52586;SDS011;38480;52.724;6.436;2023-02-08T06:49:58;48.27;;;23.80;;
52586;SDS011;38480;52.724;6.436;2023-02-08T06:52:24;47.33;;;23.67;;
52586;SDS011;38480;52.724;6.436;2023-02-08T06:54:50;50.57;;;23.90;;
52586;SDS011;38480;52.724;6.436;2023-02-08T06:57:16;43.77;;;21.73;;
52586;SDS011;38480;52.724;6.436;2023-02-08T06:59:42;44.43;;;22.30;;
52586;SDS011;38480;52.724;6.436;2023-02-08T07:02:12;44.27;;;22.17;;
52586;SDS011;38480;52.724;6.436;2023-02-08T07:04:38;43.37;;;21.57;;
52586;SDS011;38480;52.724;6.436;2023-02-08T07:07:04;42.87;;;23.93;;
52586;SDS011;38480;52.724;6.436;2023-02-08T07:09:32;48.07;;;24.07;;
52586;SDS011;38480;52.724;6.436;2023-02-08T07:11:58;56.93;;;25.27;;
52586;SDS011;38480;52.724;6.436;2023-02-08T07:14:26;51.60;;;24.67;;
52586;SDS011;38480;52.724;6.436;2023-02-08T07:16:52;50.90;;;26.13;;
52586;SDS011;38480;52.724;6.436;2023-02-08T07:19:18;54.20;;;26.53;;
52586;SDS011;38480;52.724;6.436;2023-02-08T07:21:44;63.73;;;28.63;;
52586;SDS011;38480;52.724;6.436;2023-02-08T07:24:10;48.27;;;24.57;;
52586;SDS011;38480;52.724;6.436;2023-02-08T07:26:36;52.30;;;24.80;;
52586;SDS011;38480;52.724;6.436;2023-02-08T07:29:02;46.83;;;23.73;;
52586;SDS011;38480;52.724;6.436;2023-02-08T07:31:28;49.73;;;23.13;;
52586;SDS011;38480;52.724;6.436;2023-02-08T07:33:54;48.23;;;23.70;;
52586;SDS011;38480;52.724;6.436;2023-02-08T07:36:20;50.70;;;23.47;;
52586;SDS011;38480;52.724;6.436;2023-02-08T07:38:46;48.37;;;24.40;;
52586;SDS011;38480;52.724;6.436;2023-02-08T07:41:13;49.90;;;23.77;;
52586;SDS011;38480;52.724;6.436;2023-02-08T07:43:39;41.90;;;23.07;;
52586;SDS011;38480;52.724;6.436;2023-02-08T07:46:16;46.13;;;21.10;;
52586;SDS011;38480;52.724;6.436;2023-02-08T07:48:42;39.23;;;20.40;;
52586;SDS011;38480;52.724;6.436;2023-02-08T07:51:09;42.17;;;22.07;;
52586;SDS011;38480;52.724;6.436;2023-02-08T07:53:35;38.50;;;19.37;;
52586;SDS011;38480;52.724;6.436;2023-02-08T07:56:01;43.33;;;22.67;;
52586;SDS011;38480;52.724;6.436;2023-02-08T07:58:28;48.40;;;22.70;;
52586;SDS011;38480;52.724;6.436;2023-02-08T08:00:54;41.93;;;22.23;;
52586;SDS011;38480;52.724;6.436;2023-02-08T08:03:20;42.73;;;22.20;;
52586;SDS011;38480;52.724;6.436;2023-02-08T08:05:47;45.90;;;23.90;;
52586;SDS011;38480;52.724;6.436;2023-02-08T08:08:13;50.20;;;25.80;;
52586;SDS011;38480;52.724;6.436;2023-02-08T08:10:39;46.83;;;25.63;;
52586;SDS011;38480;52.724;6.436;2023-02-08T08:13:05;48.87;;;26.60;;
52586;SDS011;38480;52.724;6.436;2023-02-08T08:15:32;53.53;;;25.67;;
52586;SDS011;38480;52.724;6.436;2023-02-08T08:17:58;47.33;;;25.17;;
52586;SDS011;38480;52.724;6.436;2023-02-08T08:20:24;55.37;;;28.73;;
52586;SDS011;38480;52.724;6.436;2023-02-08T08:22:50;56.47;;;27.00;;
52586;SDS011;38480;52.724;6.436;2023-02-08T08:25:16;55.87;;;27.43;;
52586;SDS011;38480;52.724;6.436;2023-02-08T08:27:42;56.87;;;28.40;;
52586;SDS011;38480;52.724;6.436;2023-02-08T08:30:10;51.97;;;26.53;;
52586;SDS011;38480;52.724;6.436;2023-02-08T08:32:37;53.07;;;27.87;;
52586;SDS011;38480;52.724;6.436;2023-02-08T08:35:03;61.77;;;28.33;;
52586;SDS011;38480;52.724;6.436;2023-02-08T08:37:29;57.17;;;29.33;;
52586;SDS011;38480;52.724;6.436;2023-02-08T08:39:55;56.47;;;28.90;;
52586;SDS011;38480;52.724;6.436;2023-02-08T08:42:22;52.87;;;26.53;;
52586;SDS011;38480;52.724;6.436;2023-02-08T08:44:48;48.63;;;25.37;;
52586;SDS011;38480;52.724;6.436;2023-02-08T08:47:14;53.27;;;26.97;;
52586;SDS011;38480;52.724;6.436;2023-02-08T08:49:40;49.97;;;27.50;;
52586;SDS011;38480;52.724;6.436;2023-02-08T08:52:08;48.63;;;26.90;;
52586;SDS011;38480;52.724;6.436;2023-02-08T08:54:34;47.27;;;25.53;;
52586;SDS011;38480;52.724;6.436;2023-02-08T08:57:00;44.50;;;24.63;;
52586;SDS011;38480;52.724;6.436;2023-02-08T08:59:26;55.20;;;28.70;;
52586;SDS011;38480;52.724;6.436;2023-02-08T09:01:52;41.20;;;24.20;;
52586;SDS011;38480;52.724;6.436;2023-02-08T09:04:18;51.50;;;27.73;;
52586;SDS011;38480;52.724;6.436;2023-02-08T09:06:47;49.03;;;26.33;;
52586;SDS011;38480;52.724;6.436;2023-02-08T09:09:13;43.07;;;24.97;;
52586;SDS011;38480;52.724;6.436;2023-02-08T09:11:39;42.73;;;26.13;;
52586;SDS011;38480;52.724;6.436;2023-02-08T09:14:05;44.73;;;25.03;;
52586;SDS011;38480;52.724;6.436;2023-02-08T09:16:31;45.17;;;26.10;;
52586;SDS011;38480;52.724;6.436;2023-02-08T09:19:04;44.90;;;25.30;;
52586;SDS011;38480;52.724;6.436;2023-02-08T09:21:31;44.15;;;25.17;;
52586;SDS011;38480;52.724;6.436;2023-02-08T09:23:57;42.23;;;24.03;;
52586;SDS011;38480;52.724;6.436;2023-02-08T09:26:23;40.47;;;23.27;;
52586;SDS011;38480;52.724;6.436;2023-02-08T09:28:50;41.20;;;23.30;;
52586;SDS011;38480;52.724;6.436;2023-02-08T09:33:46;41.87;;;23.73;;
52586;SDS011;38480;52.724;6.436;2023-02-08T09:36:12;41.87;;;23.10;;
52586;SDS011;38480;52.724;6.436;2023-02-08T09:38:38;46.07;;;23.77;;
52586;SDS011;38480;52.724;6.436;2023-02-08T09:44:01;35.77;;;22.33;;
52586;SDS011;38480;52.724;6.436;2023-02-08T09:46:32;48.07;;;24.83;;
52586;SDS011;38480;52.724;6.436;2023-02-08T09:49:02;50.17;;;29.67;;
52586;SDS011;38480;52.724;6.436;2023-02-08T09:51:37;57.40;;;33.40;;
52586;SDS011;38480;52.724;6.436;2023-02-08T09:54:21;45.17;;;29.47;;
52586;SDS011;38480;52.724;6.436;2023-02-08T09:56:49;48.93;;;31.23;;
52586;SDS011;38480;52.724;6.436;2023-02-08T09:59:21;43.13;;;27.80;;
52586;SDS011;38480;52.724;6.436;2023-02-08T10:01:49;33.93;;;21.70;;
52586;SDS011;38480;52.724;6.436;2023-02-08T10:07:01;29.53;;;19.37;;
52586;SDS011;38480;52.724;6.436;2023-02-08T10:09:27;26.13;;;17.90;;
52586;SDS011;38480;52.724;6.436;2023-02-08T10:15:04;24.77;;;15.17;;
52586;SDS011;38480;52.724;6.436;2023-02-08T10:22:43;16.07;;;10.23;;
52586;SDS011;38480;52.724;6.436;2023-02-08T10:25:19;16.83;;;11.10;;
52586;SDS011;38480;52.724;6.436;2023-02-08T10:27:55;16.13;;;9.90;;
52586;SDS011;38480;52.724;6.436;2023-02-08T10:33:02;16.23;;;10.97;;
52586;SDS011;38480;52.724;6.436;2023-02-08T10:35:36;15.77;;;10.23;;
52586;SDS011;38480;52.724;6.436;2023-02-08T10:40:48;15.53;;;10.57;;
52586;SDS011;38480;52.724;6.436;2023-02-08T10:45:44;13.17;;;9.47;;
52586;SDS011;38480;52.724;6.436;2023-02-08T10:48:14;15.50;;;9.40;;
52586;SDS011;38480;52.724;6.436;2023-02-08T10:50:42;14.03;;;10.00;;
52586;SDS011;38480;52.724;6.436;2023-02-08T10:53:15;12.57;;;8.40;;
52586;SDS011;38480;52.724;6.436;2023-02-08T10:55:42;18.40;;;10.87;;
52586;SDS011;38480;52.724;6.436;2023-02-08T10:58:12;13.37;;;8.43;;
52586;SDS011;38480;52.724;6.436;2023-02-08T11:00:38;16.40;;;9.67;;
52586;SDS011;38480;52.724;6.436;2023-02-08T11:03:24;15.63;;;9.50;;
52586;SDS011;38480;52.724;6.436;2023-02-08T11:05:51;13.97;;;8.87;;
52586;SDS011;38480;52.724;6.436;2023-02-08T11:08:18;15.27;;;9.93;;
52586;SDS011;38480;52.724;6.436;2023-02-08T11:11:02;15.47;;;9.50;;
52586;SDS011;38480;52.724;6.436;2023-02-08T11:16:01;12.63;;;8.90;;
52586;SDS011;38480;52.724;6.436;2023-02-08T11:18:30;12.93;;;8.73;;
52586;SDS011;38480;52.724;6.436;2023-02-08T11:20:58;12.13;;;8.37;;
52586;SDS011;38480;52.724;6.436;2023-02-08T11:23:26;13.30;;;7.80;;
52586;SDS011;38480;52.724;6.436;2023-02-08T11:25:53;13.10;;;8.83;;
52586;SDS011;38480;52.724;6.436;2023-02-08T11:28:27;12.80;;;8.57;;
52586;SDS011;38480;52.724;6.436;2023-02-08T11:31:01;12.43;;;7.60;;
52586;SDS011;38480;52.724;6.436;2023-02-08T11:33:33;12.77;;;8.33;;
52586;SDS011;38480;52.724;6.436;2023-02-08T11:36:00;12.90;;;8.10;;
52586;SDS011;38480;52.724;6.436;2023-02-08T11:38:27;12.47;;;8.10;;
52586;SDS011;38480;52.724;6.436;2023-02-08T11:40:57;10.63;;;7.70;;
52586;SDS011;38480;52.724;6.436;2023-02-08T11:43:25;10.80;;;7.30;;
52586;SDS011;38480;52.724;6.436;2023-02-08T11:45:52;11.83;;;7.53;;
52586;SDS011;38480;52.724;6.436;2023-02-08T11:48:20;11.10;;;7.17;;
52586;SDS011;38480;52.724;6.436;2023-02-08T11:50:51;10.93;;;7.20;;
52586;SDS011;38480;52.724;6.436;2023-02-08T11:53:19;12.63;;;8.63;;
52586;SDS011;38480;52.724;6.436;2023-02-08T11:56:00;10.75;;;7.25;;
52586;SDS011;38480;52.724;6.436;2023-02-08T11:58:26;15.67;;;8.67;;
52586;SDS011;38480;52.724;6.436;2023-02-08T12:03:26;11.17;;;7.23;;
52586;SDS011;38480;52.724;6.436;2023-02-08T12:11:07;10.87;;;7.47;;
52586;SDS011;38480;52.724;6.436;2023-02-08T12:21:40;10.43;;;7.03;;
52586;SDS011;38480;52.724;6.436;2023-02-08T12:32:20;8.30;;;5.63;;
52586;SDS011;38480;52.724;6.436;2023-02-08T12:37:25;8.67;;;6.70;;
52586;SDS011;38480;52.724;6.436;2023-02-08T12:40:20;11.52;;;6.82;;
52586;SDS011;38480;52.724;6.436;2023-02-08T12:43:28;8.23;;;5.73;;
52586;SDS011;38480;52.724;6.436;2023-02-08T12:53:59;11.13;;;5.40;;
52586;SDS011;38480;52.724;6.436;2023-02-08T12:56:35;7.07;;;5.27;;
52586;SDS011;38480;52.724;6.436;2023-02-08T12:59:02;5.77;;;4.07;;
52586;SDS011;38480;52.724;6.436;2023-02-08T13:01:31;6.10;;;4.37;;
52586;SDS011;38480;52.724;6.436;2023-02-08T13:06:35;4.93;;;3.47;;
52586;SDS011;38480;52.724;6.436;2023-02-08T13:09:15;7.00;;;4.23;;
52586;SDS011;38480;52.724;6.436;2023-02-08T13:11:51;5.70;;;3.63;;
52586;SDS011;38480;52.724;6.436;2023-02-08T13:14:32;7.27;;;4.20;;
52586;SDS011;38480;52.724;6.436;2023-02-08T13:17:04;5.73;;;3.77;;
52586;SDS011;38480;52.724;6.436;2023-02-08T13:22:16;5.77;;;3.27;;
52586;SDS011;38480;52.724;6.436;2023-02-08T13:24:43;5.70;;;2.63;;
52586;SDS011;38480;52.724;6.436;2023-02-08T13:27:14;6.27;;;3.27;;
52586;SDS011;38480;52.724;6.436;2023-02-08T13:29:40;6.53;;;3.53;;
52586;SDS011;38480;52.724;6.436;2023-02-08T13:32:16;6.40;;;3.10;;
52586;SDS011;38480;52.724;6.436;2023-02-08T13:34:52;4.93;;;2.80;;
52586;SDS011;38480;52.724;6.436;2023-02-08T13:37:23;4.53;;;3.30;;
52586;SDS011;38480;52.724;6.436;2023-02-08T13:39:56;5.20;;;3.27;;
52586;SDS011;38480;52.724;6.436;2023-02-08T13:45:09;5.27;;;2.83;;
52586;SDS011;38480;52.724;6.436;2023-02-08T13:47:42;4.47;;;3.23;;
52586;SDS011;38480;52.724;6.436;2023-02-08T13:52:54;4.30;;;2.63;;
52586;SDS011;38480;52.724;6.436;2023-02-08T13:58:00;5.33;;;3.43;;
52586;SDS011;38480;52.724;6.436;2023-02-08T14:00:33;5.77;;;3.33;;
52586;SDS011;38480;52.724;6.436;2023-02-08T14:03:18;5.68;;;3.10;;
52586;SDS011;38480;52.724;6.436;2023-02-08T14:05:46;4.17;;;2.83;;
52586;SDS011;38480;52.724;6.436;2023-02-08T14:13:28;5.40;;;2.50;;
52586;SDS011;38480;52.724;6.436;2023-02-08T14:18:58;4.87;;;2.53;;
52586;SDS011;38480;52.724;6.436;2023-02-08T14:21:38;5.53;;;2.80;;
52586;SDS011;38480;52.724;6.436;2023-02-08T14:24:16;4.47;;;2.50;;
52586;SDS011;38480;52.724;6.436;2023-02-08T14:26:44;3.87;;;2.50;;
52586;SDS011;38480;52.724;6.436;2023-02-08T14:29:16;3.70;;;2.57;;
52586;SDS011;38480;52.724;6.436;2023-02-08T14:31:44;7.70;;;3.40;;
52586;SDS011;38480;52.724;6.436;2023-02-08T14:34:29;4.60;;;2.80;;
52586;SDS011;38480;52.724;6.436;2023-02-08T14:37:02;4.30;;;2.90;;
52586;SDS011;38480;52.724;6.436;2023-02-08T14:39:29;4.30;;;2.70;;
52586;SDS011;38480;52.724;6.436;2023-02-08T14:42:01;4.37;;;2.93;;
52586;SDS011;38480;52.724;6.436;2023-02-08T14:49:51;3.40;;;2.27;;
52586;SDS011;38480;52.724;6.436;2023-02-08T14:52:23;5.43;;;2.72;;
52586;SDS011;38480;52.724;6.436;2023-02-08T14:54:55;4.27;;;2.57;;
52586;SDS011;38480;52.724;6.436;2023-02-08T14:57:24;5.63;;;3.28;;
52586;SDS011;38480;52.724;6.436;2023-02-08T14:59:52;5.17;;;2.70;;
52586;SDS011;38480;52.724;6.436;2023-02-08T15:02:19;6.03;;;2.73;;
52586;SDS011;38480;52.724;6.436;2023-02-08T15:04:45;4.43;;;3.03;;
52586;SDS011;38480;52.724;6.436;2023-02-08T15:09:56;4.80;;;2.70;;
52586;SDS011;38480;52.724;6.436;2023-02-08T15:12:29;5.37;;;2.77;;
52586;SDS011;38480;52.724;6.436;2023-02-08T15:14:58;5.30;;;3.50;;
52586;SDS011;38480;52.724;6.436;2023-02-08T15:17:40;5.67;;;3.20;;
52586;SDS011;38480;52.724;6.436;2023-02-08T15:22:35;4.83;;;3.00;;
52586;SDS011;38480;52.724;6.436;2023-02-08T15:25:12;4.30;;;2.97;;
52586;SDS011;38480;52.724;6.436;2023-02-08T15:27:44;4.13;;;3.10;;
52586;SDS011;38480;52.724;6.436;2023-02-08T15:30:30;6.20;;;2.97;;
52586;SDS011;38480;52.724;6.436;2023-02-08T15:32:57;4.87;;;2.80;;
52586;SDS011;38480;52.724;6.436;2023-02-08T15:35:24;6.03;;;3.90;;
52586;SDS011;38480;52.724;6.436;2023-02-08T15:37:50;5.57;;;3.37;;
52586;SDS011;38480;52.724;6.436;2023-02-08T15:40:20;4.77;;;2.63;;
52586;SDS011;38480;52.724;6.436;2023-02-08T15:42:46;5.30;;;2.97;;
52586;SDS011;38480;52.724;6.436;2023-02-08T15:45:23;6.40;;;3.33;;
52586;SDS011;38480;52.724;6.436;2023-02-08T15:47:49;4.33;;;2.77;;
52586;SDS011;38480;52.724;6.436;2023-02-08T15:50:16;5.37;;;2.73;;
52586;SDS011;38480;52.724;6.436;2023-02-08T15:52:43;7.13;;;3.37;;
52586;SDS011;38480;52.724;6.436;2023-02-08T15:55:16;6.10;;;2.83;;
52586;SDS011;38480;52.724;6.436;2023-02-08T16:02:38;5.60;;;3.37;;
52586;SDS011;38480;52.724;6.436;2023-02-08T16:08:01;5.70;;;3.00;;
52586;SDS011;38480;52.724;6.436;2023-02-08T16:13:02;5.53;;;3.22;;
52586;SDS011;38480;52.724;6.436;2023-02-08T16:15:36;5.10;;;2.73;;
52586;SDS011;38480;52.724;6.436;2023-02-08T16:18:03;5.53;;;2.83;;
52586;SDS011;38480;52.724;6.436;2023-02-08T16:20:30;6.23;;;3.97;;
52586;SDS011;38480;52.724;6.436;2023-02-08T16:23:01;7.83;;;4.20;;
52586;SDS011;38480;52.724;6.436;2023-02-08T16:27:54;6.30;;;3.53;;
52586;SDS011;38480;52.724;6.436;2023-02-08T16:30:20;6.90;;;3.97;;
52586;SDS011;38480;52.724;6.436;2023-02-08T16:32:47;7.97;;;4.10;;
52586;SDS011;38480;52.724;6.436;2023-02-08T16:35:17;6.33;;;3.67;;
52586;SDS011;38480;52.724;6.436;2023-02-08T16:37:51;5.90;;;3.70;;
52586;SDS011;38480;52.724;6.436;2023-02-08T16:48:57;7.23;;;4.10;;
52586;SDS011;38480;52.724;6.436;2023-02-08T16:51:26;6.30;;;3.57;;
52586;SDS011;38480;52.724;6.436;2023-02-08T16:53:54;5.40;;;3.10;;
52586;SDS011;38480;52.724;6.436;2023-02-08T16:56:20;7.43;;;4.10;;
52586;SDS011;38480;52.724;6.436;2023-02-08T16:58:47;7.60;;;3.70;;
52586;SDS011;38480;52.724;6.436;2023-02-08T17:01:13;6.70;;;4.37;;
52586;SDS011;38480;52.724;6.436;2023-02-08T17:03:40;8.03;;;4.60;;
52586;SDS011;38480;52.724;6.436;2023-02-08T17:06:06;6.77;;;4.00;;
52586;SDS011;38480;52.724;6.436;2023-02-08T17:08:37;7.07;;;3.70;;
52586;SDS011;38480;52.724;6.436;2023-02-08T17:11:03;6.77;;;4.03;;
52586;SDS011;38480;52.724;6.436;2023-02-08T17:13:29;8.07;;;4.10;;
52586;SDS011;38480;52.724;6.436;2023-02-08T17:15:56;7.67;;;4.90;;
52586;SDS011;38480;52.724;6.436;2023-02-08T17:18:24;7.67;;;4.70;;
52586;SDS011;38480;52.724;6.436;2023-02-08T17:20:50;8.10;;;4.93;;
52586;SDS011;38480;52.724;6.436;2023-02-08T17:23:21;8.20;;;4.60;;
52586;SDS011;38480;52.724;6.436;2023-02-08T17:25:47;7.57;;;4.20;;